createdAt,value
2018-11-26T00:00:47.404Z,22.27
2018-11-26T00:01:53.095Z,22.60
2018-11-26T00:02:57.132Z,27.17
2018-11-26T00:04:02.057Z,21.82
2018-11-26T00:05:06.425Z,21.15
2018-11-26T00:06:10.641Z,23.90
2018-11-26T00:07:14.964Z,26.55
2018-11-26T00:08:20.002Z,21.42
2018-11-26T00:09:24.354Z,25.20
2018-11-26T00:10:39.160Z,24.55
2018-11-26T00:11:43.896Z,26.10
2018-11-26T00:12:48.039Z,23.35
2018-11-26T00:13:52.669Z,25.45
2018-11-26T00:14:56.868Z,24.80
2018-11-26T00:16:00.765Z,21.57
2018-11-26T00:17:04.838Z,24.90
2018-11-26T00:18:10.125Z,26.50
2018-11-26T00:19:14.362Z,25.37
2018-11-26T00:20:18.706Z,25.32
2018-11-26T00:21:23.721Z,22.42
2018-11-26T00:22:27.768Z,22.25
2018-11-26T00:23:32.528Z,24.72
2018-11-26T00:24:37.039Z,22.07
2018-11-26T00:25:41.333Z,26.87
2018-11-26T00:26:45.710Z,24.05
2018-11-26T00:27:49.844Z,25.40
2018-11-26T00:28:54.201Z,25.80
2018-11-26T00:29:59.723Z,25.02
2018-11-26T00:31:04.181Z,23.55
2018-11-26T00:32:08.450Z,24.63
2018-11-26T00:33:12.985Z,21.65
2018-11-26T00:34:16.939Z,22.98
2018-11-26T00:35:21.027Z,22.45
2018-11-26T00:36:25.372Z,27.82
2018-11-26T00:37:29.344Z,23.07
2018-11-26T00:38:33.884Z,26.20
2018-11-26T00:39:38.218Z,25.77
2018-11-26T00:40:42.721Z,26.02
2018-11-26T00:41:46.771Z,22.30
2018-11-26T00:42:51.095Z,26.60
2018-11-26T00:43:55.047Z,23.05
2018-11-26T00:44:59.254Z,27.62
2018-11-26T00:46:03.294Z,24.10
2018-11-26T00:47:07.584Z,25.85
2018-11-26T00:48:11.722Z,26.35
2018-11-26T00:49:15.605Z,22.35
2018-11-26T00:50:19.858Z,33.60
2018-11-26T00:51:23.825Z,22.70
2018-11-26T00:52:27.970Z,24.85
2018-11-26T00:53:32.045Z,24.70
2018-11-26T00:54:36.120Z,24.37
2018-11-26T00:55:40.588Z,24.02
2018-11-26T00:56:46.179Z,23.00
2018-11-26T00:57:51.411Z,28.95
2018-11-26T00:58:55.367Z,31.95
2018-11-26T00:59:59.329Z,22.93
2018-11-26T01:01:03.446Z,23.85
2018-11-26T01:02:11.318Z,22.77
2018-11-26T01:03:15.373Z,25.32
2018-11-26T01:04:19.347Z,23.87
2018-11-26T01:05:44.058Z,25.52
2018-11-26T01:06:47.965Z,28.05
2018-11-26T01:07:53.217Z,24.50
2018-11-26T01:08:57.510Z,24.75
2018-11-26T01:10:01.604Z,25.37
2018-11-26T01:11:06.186Z,21.90
2018-11-26T01:12:10.669Z,26.15
2018-11-26T01:13:14.759Z,22.67
2018-11-26T01:14:18.644Z,27.25
2018-11-26T01:15:22.894Z,23.40
2018-11-26T01:16:27.145Z,28.47
2018-11-26T01:17:31.145Z,21.23
2018-11-26T01:18:36.015Z,22.70
2018-11-26T01:19:40.172Z,27.42
2018-11-26T01:20:44.109Z,25.85
2018-11-26T01:21:48.594Z,29.37
2018-11-26T01:22:54.102Z,22.70
2018-11-26T01:23:58.223Z,23.87
2018-11-26T01:25:02.389Z,22.67
2018-11-26T01:26:06.745Z,27.65
2018-11-26T01:27:10.902Z,28.07
2018-11-26T01:28:14.809Z,25.05
2018-11-26T01:29:18.805Z,23.18
2018-11-26T01:30:23.142Z,22.05
2018-11-26T01:31:27.236Z,26.90
2018-11-26T01:32:31.647Z,22.80
2018-11-26T01:33:36.141Z,21.05
2018-11-26T01:34:40.410Z,24.05
2018-11-26T01:35:44.535Z,28.65
2018-11-26T01:36:48.441Z,23.75
2018-11-26T01:39:21.810Z,27.13
2018-11-26T01:40:32.047Z,25.55
2018-11-26T01:41:36.489Z,23.45
2018-11-26T01:42:41.416Z,26.95
2018-11-26T01:43:45.588Z,23.38
2018-11-26T01:44:49.550Z,23.27
2018-11-26T01:45:53.621Z,29.10
2018-11-26T01:46:57.628Z,29.07
2018-11-26T01:48:01.527Z,23.83
2018-11-26T01:49:05.925Z,27.17
2018-11-26T01:50:10.096Z,23.98
2018-11-26T01:51:14.052Z,27.98
2018-11-26T01:52:18.030Z,27.20
2018-11-26T01:53:22.044Z,26.42
2018-11-26T01:54:26.024Z,22.85
2018-11-26T01:55:30.150Z,25.23
2018-11-26T01:56:34.466Z,25.20
2018-11-26T01:57:38.514Z,26.87
2018-11-26T01:58:42.432Z,27.82
2018-11-26T01:59:46.308Z,26.73
2018-11-26T02:00:50.529Z,28.27
2018-11-26T02:01:54.767Z,29.02
2018-11-26T02:02:58.706Z,28.17
2018-11-26T02:04:03.314Z,26.60
2018-11-26T02:05:08.125Z,24.80
2018-11-26T02:06:12.278Z,30.65
2018-11-26T02:07:16.258Z,27.02
2018-11-26T02:08:20.184Z,24.65
2018-11-26T02:09:24.216Z,25.45
2018-11-26T02:10:28.368Z,28.35
2018-11-26T02:11:33.242Z,24.77
2018-11-26T02:12:37.337Z,27.95
2018-11-26T02:13:41.258Z,27.75
2018-11-26T02:14:45.348Z,31.57
2018-11-26T02:15:49.349Z,26.02
2018-11-26T02:16:53.345Z,26.73
2018-11-26T02:17:57.336Z,24.63
2018-11-26T02:19:01.276Z,28.20
2018-11-26T02:20:05.615Z,28.27
2018-11-26T02:21:09.524Z,27.73
2018-11-26T02:22:13.497Z,27.45
2018-11-26T02:23:17.381Z,26.25
2018-11-26T02:24:21.240Z,26.52
2018-11-26T02:25:25.130Z,25.35
2018-11-26T02:26:29.014Z,28.17
2018-11-26T02:27:33.036Z,26.05
2018-11-26T02:28:36.906Z,22.85
2018-11-26T02:29:40.789Z,26.90
2018-11-26T02:30:45.296Z,23.50
2018-11-26T02:31:49.206Z,23.75
2018-11-26T02:32:53.284Z,24.82
2018-11-26T02:33:57.370Z,27.05
2018-11-26T02:35:01.375Z,25.40
2018-11-26T02:36:05.920Z,24.52
2018-11-26T02:37:47.538Z,22.50
2018-11-26T02:38:51.835Z,24.32
2018-11-26T02:39:56.374Z,26.45
2018-11-26T02:41:01.290Z,26.23
2018-11-26T02:42:05.255Z,28.05
2018-11-26T02:43:09.349Z,26.12
2018-11-26T02:44:13.278Z,25.40
2018-11-26T02:45:17.243Z,32.42
2018-11-26T02:46:21.663Z,29.12
2018-11-26T02:47:26.765Z,26.95
2018-11-26T02:48:30.826Z,24.90
2018-11-26T02:49:34.757Z,27.70
2018-11-26T02:50:38.970Z,28.57
2018-11-26T02:51:43.218Z,29.15
2018-11-26T02:52:47.383Z,27.00
2018-11-26T02:53:51.308Z,26.35
2018-11-26T02:54:55.626Z,28.45
2018-11-26T02:55:59.619Z,28.62
2018-11-26T02:57:03.628Z,25.70
2018-11-26T02:58:07.764Z,24.65
2018-11-26T02:59:11.668Z,27.62
2018-11-26T03:00:15.618Z,28.32
2018-11-26T03:01:20.040Z,33.78
2018-11-26T03:02:24.169Z,22.62
2018-11-26T03:03:28.054Z,24.60
2018-11-26T03:04:32.349Z,28.73
2018-11-26T03:05:36.474Z,31.05
2018-11-26T03:06:40.425Z,28.30
2018-11-26T03:07:44.338Z,26.65
2018-11-26T03:08:48.465Z,27.13
2018-11-26T03:09:52.469Z,27.70
2018-11-26T03:10:57.021Z,26.02
2018-11-26T03:12:01.283Z,25.92
2018-11-26T03:13:05.329Z,27.00
2018-11-26T03:14:09.289Z,26.27
2018-11-26T03:15:13.188Z,26.15
2018-11-26T03:16:17.132Z,26.95
2018-11-26T03:17:21.556Z,27.30
2018-11-26T03:18:25.571Z,31.33
2018-11-26T03:19:29.492Z,25.60
2018-11-26T03:20:33.792Z,25.92
2018-11-26T03:21:37.702Z,28.30
2018-11-26T03:22:41.988Z,23.67
2018-11-26T03:23:46.290Z,27.90
2018-11-26T03:24:50.194Z,23.65
2018-11-26T03:25:54.208Z,25.62
2018-11-26T03:26:59.092Z,32.93
2018-11-26T03:28:03.068Z,27.60
2018-11-26T03:29:07.561Z,25.75
2018-11-26T03:30:18.198Z,26.57
2018-11-26T03:31:22.591Z,29.35
2018-11-26T03:32:26.725Z,27.82
2018-11-26T03:33:30.639Z,27.10
2018-11-26T03:34:34.806Z,27.15
2018-11-26T03:35:38.877Z,26.68
2018-11-26T03:36:42.813Z,28.47
2018-11-26T03:37:46.982Z,29.20
2018-11-26T03:38:53.703Z,27.37
2018-11-26T03:39:57.589Z,26.05
2018-11-26T03:41:01.655Z,27.27
2018-11-26T03:42:06.101Z,27.07
2018-11-26T03:43:10.211Z,28.20
2018-11-26T03:44:14.197Z,29.05
2018-11-26T03:45:18.834Z,26.57
2018-11-26T03:46:22.777Z,27.35
2018-11-26T03:47:26.633Z,24.70
2018-11-26T03:48:30.820Z,28.15
2018-11-26T03:49:35.709Z,28.87
2018-11-26T03:50:39.865Z,25.05
2018-11-26T03:51:43.799Z,29.63
2018-11-26T03:52:47.757Z,24.87
2018-11-26T03:53:51.621Z,25.72
2018-11-26T03:54:55.479Z,25.85
2018-11-26T03:56:01.398Z,25.30
2018-11-26T03:57:05.833Z,29.35
2018-11-26T03:58:09.810Z,28.75
2018-11-26T03:59:13.764Z,25.00
2018-11-26T04:00:17.814Z,27.80
2018-11-26T04:01:21.707Z,29.02
2018-11-26T04:02:25.614Z,26.70
2018-11-26T04:03:29.702Z,25.15
2018-11-26T04:04:33.652Z,29.37
2018-11-26T04:05:37.662Z,28.98
2018-11-26T04:06:42.264Z,26.23
2018-11-26T04:07:46.548Z,27.60
2018-11-26T04:08:50.747Z,24.23
2018-11-26T04:09:55.572Z,27.58
2018-11-26T04:10:59.800Z,28.87
2018-11-26T04:12:03.797Z,26.42
2018-11-26T04:13:07.701Z,26.80
2018-11-26T04:14:12.249Z,30.80
2018-11-26T04:15:16.911Z,28.12
2018-11-26T04:16:20.834Z,29.18
2018-11-26T04:17:25.174Z,26.40
2018-11-26T04:18:30.370Z,29.70
2018-11-26T04:19:34.386Z,30.27
2018-11-26T04:20:39.544Z,28.10
2018-11-26T04:21:43.453Z,28.85
2018-11-26T04:22:47.307Z,29.23
2018-11-26T04:23:51.259Z,25.97
2018-11-26T04:24:55.238Z,32.50
2018-11-26T04:25:59.139Z,28.35
2018-11-26T04:27:03.039Z,29.07
2018-11-26T04:28:10.109Z,27.42
2018-11-26T04:29:14.457Z,28.30
2018-11-26T04:30:18.457Z,27.80
2018-11-26T04:31:22.400Z,28.62
2018-11-26T04:32:26.358Z,27.42
2018-11-26T04:33:30.663Z,34.00
2018-11-26T04:34:35.080Z,29.25
2018-11-26T04:35:39.285Z,26.27
2018-11-26T04:36:44.726Z,28.45
2018-11-26T04:37:49.405Z,33.60
2018-11-26T04:38:54.763Z,26.57
2018-11-26T04:39:59.057Z,29.75
2018-11-26T04:41:03.658Z,26.93
2018-11-26T04:42:08.107Z,33.38
2018-11-26T04:43:12.195Z,31.65
2018-11-26T04:44:16.405Z,28.70
2018-11-26T04:45:21.149Z,29.60
2018-11-26T04:46:25.331Z,28.87
2018-11-26T04:47:30.031Z,30.50
2018-11-26T04:48:33.992Z,26.12
2018-11-26T04:49:37.973Z,27.22
2018-11-26T04:50:41.874Z,33.50
2018-11-26T04:51:45.750Z,28.45
2018-11-26T04:52:49.712Z,30.08
2018-11-26T04:53:53.730Z,27.30
2018-11-26T04:54:58.069Z,27.40
2018-11-26T04:56:02.267Z,28.83
2018-11-26T04:57:06.277Z,28.23
2018-11-26T04:58:10.180Z,29.82
2018-11-26T04:59:14.224Z,26.30
2018-11-26T05:00:18.188Z,29.37
2018-11-26T05:01:22.100Z,26.70
2018-11-26T05:02:26.791Z,28.60
2018-11-26T05:03:30.921Z,30.23
2018-11-26T05:04:35.910Z,30.12
2018-11-26T05:05:39.865Z,26.37
2018-11-26T05:06:43.777Z,27.42
2018-11-26T05:07:47.738Z,28.45
2018-11-26T05:08:55.494Z,29.52
2018-11-26T05:09:59.566Z,30.97
2018-11-26T05:12:05.950Z,30.23
2018-11-26T05:13:09.965Z,28.87
2018-11-26T05:14:14.097Z,33.10
2018-11-26T05:15:18.086Z,25.60
2018-11-26T05:16:22.128Z,27.50
2018-11-26T05:17:26.241Z,27.30
2018-11-26T05:18:30.270Z,27.15
2018-11-26T05:19:34.314Z,31.85
2018-11-26T05:20:38.874Z,32.38
2018-11-26T05:21:42.903Z,24.65
2018-11-26T05:22:46.969Z,31.27
2018-11-26T05:23:51.824Z,28.85
2018-11-26T05:24:57.241Z,28.35
2018-11-26T05:26:01.317Z,28.00
2018-11-26T05:27:05.425Z,34.38
2018-11-26T05:28:09.494Z,32.00
2018-11-26T05:29:13.456Z,27.05
2018-11-26T05:30:17.446Z,29.60
2018-11-26T05:31:21.373Z,29.50
2018-11-26T05:32:27.498Z,25.77
2018-11-26T05:33:31.479Z,25.65
2018-11-26T05:34:36.641Z,29.60
2018-11-26T05:35:41.295Z,34.15
2018-11-26T05:36:45.319Z,26.82
2018-11-26T05:37:49.216Z,28.98
2018-11-26T05:38:55.035Z,29.82
2018-11-26T05:39:58.980Z,30.02
2018-11-26T05:41:02.997Z,30.25
2018-11-26T05:42:06.942Z,29.27
2018-11-26T05:43:12.476Z,26.68
2018-11-26T05:44:17.405Z,30.32
2018-11-26T05:45:23.109Z,30.45
2018-11-26T05:46:27.012Z,28.92
2018-11-26T05:47:30.992Z,31.27
2018-11-26T05:48:35.003Z,29.10
2018-11-26T05:49:39.164Z,29.07
2018-11-26T05:50:43.334Z,29.72
2018-11-26T05:51:47.574Z,28.90
2018-11-26T05:52:51.780Z,29.52
2018-11-26T05:53:55.721Z,26.80
2018-11-26T05:54:59.593Z,31.45
2018-11-26T05:56:03.508Z,27.22
2018-11-26T05:57:07.701Z,30.57
2018-11-26T05:58:11.702Z,28.35
2018-11-26T05:59:15.734Z,30.40
2018-11-26T06:00:37.807Z,26.12
2018-11-26T06:01:41.716Z,29.92
2018-11-26T06:02:45.797Z,28.85
2018-11-26T06:03:50.749Z,30.57
2018-11-26T06:04:55.124Z,28.05
2018-11-26T06:05:59.367Z,29.82
2018-11-26T06:07:03.433Z,31.00
2018-11-26T06:08:07.553Z,31.50
2018-11-26T06:09:12.395Z,29.92
2018-11-26T06:10:16.319Z,29.75
2018-11-26T06:12:34.309Z,31.77
2018-11-26T06:13:38.452Z,29.05
2018-11-26T06:14:42.399Z,28.73
2018-11-26T06:15:46.317Z,27.15
2018-11-26T06:16:53.651Z,31.17
2018-11-26T06:17:55.045Z,27.93
2018-11-26T06:18:58.914Z,29.65
2018-11-26T06:20:02.860Z,28.10
2018-11-26T06:21:07.188Z,37.35
2018-11-26T06:22:29.281Z,32.45
2018-11-26T06:24:16.153Z,31.33
2018-11-26T06:25:21.414Z,32.85
2018-11-26T06:26:27.725Z,29.35
2018-11-26T06:27:31.733Z,31.12
2018-11-26T06:28:36.670Z,32.98
2018-11-26T06:29:41.417Z,35.33
2018-11-26T06:30:49.066Z,32.67
2018-11-26T06:31:53.197Z,32.50
2018-11-26T06:32:57.777Z,33.53
2018-11-26T06:34:01.764Z,31.77
2018-11-26T06:35:09.740Z,33.05
2018-11-26T06:36:14.653Z,29.42
2018-11-26T06:37:18.542Z,32.30
2018-11-26T06:38:22.637Z,38.08
2018-11-26T06:39:26.745Z,28.83
2018-11-26T06:40:30.800Z,31.60
2018-11-26T06:41:34.721Z,31.77
2018-11-26T06:42:38.861Z,31.85
2018-11-26T06:43:42.855Z,29.40
2018-11-26T06:44:46.853Z,37.65
2018-11-26T06:45:51.367Z,31.30
2018-11-26T06:46:55.709Z,31.25
2018-11-26T06:47:59.598Z,29.02
2018-11-26T06:49:04.167Z,30.68
2018-11-26T06:50:10.078Z,31.42
2018-11-26T06:51:14.010Z,30.08
2018-11-26T06:52:18.386Z,29.20
2018-11-26T06:53:22.641Z,33.00
2018-11-26T06:54:26.605Z,31.95
2018-11-26T06:55:30.927Z,38.40
2018-11-26T06:56:34.976Z,30.90
2018-11-26T06:57:39.152Z,30.32
2018-11-26T06:58:43.147Z,33.92
2018-11-26T06:59:47.548Z,32.85
2018-11-26T07:00:51.719Z,33.45
2018-11-26T07:01:57.513Z,34.18
2018-11-26T07:03:03.142Z,35.95
2018-11-26T07:04:07.334Z,38.38
2018-11-26T07:05:14.195Z,34.90
2018-11-26T07:06:18.145Z,33.05
2018-11-26T07:07:22.098Z,34.85
2018-11-26T07:08:26.427Z,33.55
2018-11-26T07:09:31.241Z,32.28
2018-11-26T07:10:35.140Z,37.40
2018-11-26T07:11:39.381Z,36.93
2018-11-26T07:12:44.225Z,33.55
2018-11-26T07:13:48.163Z,36.58
2018-11-26T07:14:52.368Z,30.95
2018-11-26T07:16:15.501Z,33.40
2018-11-26T07:17:20.384Z,34.67
2018-11-26T07:18:24.817Z,33.63
2018-11-26T07:19:28.801Z,33.20
2018-11-26T07:20:33.076Z,34.95
2018-11-26T07:21:37.322Z,34.65
2018-11-26T07:22:46.690Z,31.93
2018-11-26T07:23:51.463Z,30.40
2018-11-26T07:24:55.373Z,27.62
2018-11-26T07:25:59.384Z,32.80
2018-11-26T07:27:03.635Z,37.88
2018-11-26T07:28:08.548Z,32.50
2018-11-26T07:29:12.841Z,34.35
2018-11-26T07:30:18.999Z,36.53
2018-11-26T07:31:24.470Z,33.50
2018-11-26T07:32:30.416Z,32.53
2018-11-26T07:33:34.455Z,36.53
2018-11-26T07:34:40.506Z,30.25
2018-11-26T07:35:44.430Z,32.55
2018-11-26T07:36:49.373Z,29.27
2018-11-26T07:37:53.382Z,30.02
2018-11-26T07:38:57.663Z,32.90
2018-11-26T07:40:01.752Z,34.20
2018-11-26T07:41:06.190Z,30.77
2018-11-26T07:42:11.504Z,34.15
2018-11-26T07:43:17.481Z,34.08
2018-11-26T07:44:22.582Z,32.85
2018-11-26T07:45:26.570Z,32.95
2018-11-26T07:46:30.540Z,32.10
2018-11-26T07:47:34.423Z,35.40
2018-11-26T07:48:39.184Z,35.03
2018-11-26T07:49:43.209Z,32.42
2018-11-26T07:50:47.333Z,34.55
2018-11-26T07:51:51.824Z,32.73
2018-11-26T07:52:55.893Z,33.78
2018-11-26T07:54:00.009Z,39.00
2018-11-26T07:55:04.330Z,41.85
2018-11-26T07:56:08.381Z,41.50
2018-11-26T07:57:14.019Z,39.45
2018-11-26T07:58:18.276Z,52.03
2018-11-26T07:59:22.359Z,44.95
2018-11-26T08:00:26.875Z,44.75
2018-11-26T08:01:31.167Z,37.00
2018-11-26T08:02:35.114Z,39.58
2018-11-26T08:03:39.121Z,39.23
2018-11-26T08:04:43.336Z,41.05
2018-11-26T08:05:47.666Z,42.43
2018-11-26T08:06:51.687Z,38.92
2018-11-26T08:07:58.667Z,36.03
2018-11-26T08:09:03.736Z,40.63
2018-11-26T08:10:10.444Z,42.53
2018-11-26T08:11:14.662Z,37.88
2018-11-26T08:12:19.195Z,39.73
2018-11-26T08:13:23.366Z,42.88
2018-11-26T08:14:28.346Z,44.25
2018-11-26T08:15:32.306Z,53.65
2018-11-26T08:16:36.759Z,44.05
2018-11-26T08:17:40.733Z,38.92
2018-11-26T08:18:45.286Z,38.50
2018-11-26T08:19:49.373Z,40.45
2018-11-26T08:20:53.584Z,44.03
2018-11-26T08:21:57.730Z,44.27
2018-11-26T08:23:02.107Z,41.92
2018-11-26T08:24:06.327Z,40.70
2018-11-26T08:25:13.248Z,50.10
2018-11-26T08:26:17.724Z,35.43
2018-11-26T08:27:21.776Z,41.50
2018-11-26T08:28:26.473Z,39.13
2018-11-26T08:29:30.626Z,44.73
2018-11-26T08:30:34.859Z,41.92
2018-11-26T08:31:39.076Z,37.65
2018-11-26T08:32:48.242Z,38.38
2018-11-26T08:33:52.198Z,39.08
2018-11-26T08:34:56.428Z,49.18
2018-11-26T08:36:07.832Z,41.85
2018-11-26T08:37:19.102Z,39.95
2018-11-26T08:38:29.358Z,43.38
2018-11-26T08:39:45.079Z,41.65
2018-11-26T08:40:59.169Z,45.58
2018-11-26T08:42:03.728Z,43.63
2018-11-26T08:43:16.938Z,43.23
2018-11-26T08:44:22.975Z,48.17
2018-11-26T08:45:30.040Z,48.98
2018-11-26T08:46:39.441Z,45.05
2018-11-26T08:47:43.572Z,43.80
2018-11-26T08:48:52.650Z,39.80
2018-11-26T08:49:56.895Z,41.40
2018-11-26T08:51:02.277Z,40.28
2018-11-26T08:52:07.072Z,43.92
2018-11-26T08:53:11.227Z,44.83
2018-11-26T08:54:15.381Z,47.40
2018-11-26T08:55:19.571Z,42.48
2018-11-26T08:56:23.766Z,44.55
2018-11-26T08:57:28.996Z,46.00
2018-11-26T08:58:33.070Z,42.10
2018-11-26T08:59:36.973Z,45.78
2018-11-26T09:00:40.928Z,40.03
2018-11-26T09:01:49.771Z,42.90
2018-11-26T09:02:57.279Z,49.38
2018-11-26T09:04:11.143Z,47.17
2018-11-26T09:05:24.240Z,42.27
2018-11-26T09:06:24.721Z,42.93
2018-11-26T09:07:29.161Z,40.35
2018-11-26T09:08:34.499Z,43.48
2018-11-26T09:09:40.770Z,39.08
2018-11-26T09:10:45.779Z,39.18
2018-11-26T09:11:50.284Z,39.65
2018-11-26T09:13:13.836Z,48.45
2018-11-26T09:14:19.531Z,42.08
2018-11-26T09:15:25.037Z,41.28
2018-11-26T09:16:29.703Z,39.73
2018-11-26T09:17:33.913Z,43.85
2018-11-26T09:18:38.959Z,39.30
2018-11-26T09:19:43.004Z,42.23
2018-11-26T09:20:47.754Z,37.15
2018-11-26T09:21:52.179Z,40.60
2018-11-26T09:22:56.192Z,39.05
2018-11-26T09:24:00.646Z,47.10
2018-11-26T09:25:04.972Z,41.13
2018-11-26T09:26:12.063Z,45.95
2018-11-26T09:27:16.750Z,43.50
2018-11-26T09:28:20.832Z,41.33
2018-11-26T09:29:25.232Z,43.13
2018-11-26T09:30:29.907Z,46.15
2018-11-26T09:31:34.340Z,40.98
2018-11-26T09:32:38.573Z,42.38
2018-11-26T09:33:43.743Z,34.30
2018-11-26T09:34:47.992Z,43.83
2018-11-26T09:35:53.799Z,41.65
2018-11-26T09:36:57.820Z,35.65
2018-11-26T09:38:02.359Z,46.33
2018-11-26T09:39:11.023Z,36.48
2018-11-26T09:40:17.217Z,42.65
2018-11-26T09:41:21.241Z,41.18
2018-11-26T09:42:25.273Z,40.30
2018-11-26T09:43:30.761Z,37.80
2018-11-26T09:44:35.071Z,38.90
2018-11-26T09:45:40.697Z,44.03
2018-11-26T09:46:45.169Z,45.70
2018-11-26T09:47:49.909Z,41.73
2018-11-26T09:48:54.329Z,41.00
2018-11-26T09:49:58.307Z,40.15
2018-11-26T09:51:14.381Z,43.33
2018-11-26T09:52:20.245Z,39.73
2018-11-26T09:53:25.213Z,40.17
2018-11-26T09:54:38.260Z,38.50
2018-11-26T09:55:46.148Z,39.10
2018-11-26T09:56:52.707Z,36.58
2018-11-26T09:58:01.360Z,36.93
2018-11-26T09:59:09.968Z,40.20
2018-11-26T10:00:18.737Z,35.38
2018-11-26T10:01:27.252Z,37.53
2018-11-26T10:02:34.425Z,40.52
2018-11-26T10:05:21.230Z,34.92
2018-11-26T10:06:30.727Z,42.90
2018-11-26T10:07:37.238Z,36.53
2018-11-26T10:08:44.469Z,36.42
2018-11-26T10:09:51.727Z,40.45
2018-11-26T10:10:59.064Z,38.60
2018-11-26T10:12:05.339Z,35.95
2018-11-26T10:13:11.332Z,36.17
2018-11-26T10:14:18.358Z,38.02
2018-11-26T10:15:26.724Z,39.15
2018-11-26T10:16:33.754Z,33.73
2018-11-26T10:17:39.307Z,35.52
2018-11-26T10:18:45.172Z,36.10
2018-11-26T10:19:51.765Z,38.13
2018-11-26T10:20:59.516Z,36.05
2018-11-26T10:22:05.477Z,40.58
2018-11-26T10:23:09.724Z,36.53
2018-11-26T10:24:16.206Z,38.60
2018-11-26T10:25:26.364Z,34.43
2018-11-26T10:26:32.744Z,38.73
2018-11-26T10:27:42.817Z,43.63
2018-11-26T10:28:52.697Z,42.83
2018-11-26T10:29:57.415Z,41.20
2018-11-26T10:31:20.257Z,39.10
2018-11-26T10:32:26.758Z,37.55
2018-11-26T10:33:37.082Z,37.33
2018-11-26T10:34:41.064Z,41.20
2018-11-26T10:35:46.042Z,38.30
2018-11-26T10:36:50.245Z,40.23
2018-11-26T10:37:54.236Z,38.42
2018-11-26T10:38:58.287Z,38.13
2018-11-26T10:40:02.283Z,34.65
2018-11-26T10:41:08.366Z,35.78
2018-11-26T10:42:12.354Z,37.90
2018-11-26T10:43:16.468Z,36.13
2018-11-26T10:44:21.182Z,35.10
2018-11-26T10:45:27.966Z,40.20
2018-11-26T10:46:43.622Z,42.43
2018-11-26T10:48:05.857Z,42.50
2018-11-26T10:49:11.616Z,40.03
2018-11-26T10:50:22.830Z,37.98
2018-11-26T10:53:40.584Z,36.38
2018-11-26T10:54:44.650Z,39.20
2018-11-26T10:55:49.076Z,38.58
2018-11-26T10:56:53.164Z,38.63
2018-11-26T10:57:57.492Z,34.67
2018-11-26T10:59:01.934Z,38.38
2018-11-26T11:00:07.701Z,36.38
2018-11-26T11:01:17.256Z,38.50
2018-11-26T11:02:26.468Z,38.40
2018-11-26T11:03:31.261Z,36.42
2018-11-26T11:04:38.863Z,36.53
2018-11-26T11:05:45.733Z,36.95
2018-11-26T11:06:55.648Z,35.92
2018-11-26T11:07:55.276Z,32.45
2018-11-26T11:09:13.796Z,35.70
2018-11-26T11:10:19.359Z,39.88
2018-11-26T11:11:24.146Z,32.88
2018-11-26T11:12:48.826Z,35.45
2018-11-26T11:13:59.434Z,39.08
2018-11-26T11:15:04.299Z,36.93
2018-11-26T11:16:09.862Z,35.95
2018-11-26T11:17:15.659Z,35.65
2018-11-26T11:18:21.152Z,36.70
2018-11-26T11:19:26.504Z,34.95
2018-11-26T11:20:34.801Z,37.88
2018-11-26T11:21:39.681Z,37.38
2018-11-26T11:22:44.311Z,37.08
2018-11-26T11:23:54.757Z,36.40
2018-11-26T11:26:18.644Z,30.45
2018-11-26T11:27:37.265Z,31.97
2018-11-26T11:28:45.805Z,44.20
2018-11-26T11:30:02.932Z,34.55
2018-11-26T11:31:08.355Z,34.67
2018-11-26T11:32:22.673Z,34.67
2018-11-26T11:33:43.824Z,40.08
2018-11-26T11:34:57.521Z,31.68
2018-11-26T11:38:29.754Z,39.08
2018-11-26T11:39:48.259Z,34.33
2018-11-26T11:41:07.779Z,31.85
2018-11-26T11:42:32.784Z,32.88
2018-11-26T11:43:58.345Z,31.75
2018-11-26T11:45:10.826Z,37.80
2018-11-26T11:46:25.553Z,33.23
2018-11-26T11:47:43.051Z,33.40
2018-11-26T11:48:56.784Z,31.00
2018-11-26T11:50:11.176Z,38.60
2018-11-26T11:51:24.115Z,36.00
2018-11-26T11:52:36.584Z,37.33
2018-11-26T11:54:04.336Z,36.80
2018-11-26T11:55:21.639Z,35.10
2018-11-26T11:56:49.437Z,37.75
2018-11-26T11:58:01.336Z,40.88
2018-11-26T11:59:08.314Z,36.68
2018-11-26T12:00:52.000Z,40.15
2018-11-26T12:01:58.386Z,36.17
2018-11-26T12:03:10.533Z,37.58
2018-11-26T12:04:17.664Z,33.65
2018-11-26T12:05:30.349Z,33.35
2018-11-26T12:06:39.198Z,36.55
2018-11-26T12:07:48.451Z,41.88
2018-11-26T12:08:57.730Z,41.90
2018-11-26T12:10:05.750Z,35.60
2018-11-26T12:11:15.017Z,40.40
2018-11-26T12:12:26.357Z,37.80
2018-11-26T12:13:33.713Z,35.08
2018-11-26T12:14:55.310Z,39.25
2018-11-26T12:16:09.101Z,38.55
2018-11-26T12:17:21.754Z,37.90
2018-11-26T12:18:33.546Z,34.95
2018-11-26T12:19:41.051Z,38.45
2018-11-26T12:21:08.173Z,43.90
2018-11-26T12:22:17.189Z,51.58
2018-11-26T12:23:37.843Z,49.05
2018-11-26T12:24:49.020Z,47.10
2018-11-26T12:25:58.387Z,40.23
2018-11-26T12:27:12.815Z,43.60
2018-11-26T12:28:36.856Z,42.20
2018-11-26T12:29:47.492Z,44.93
2018-11-26T12:30:55.990Z,39.05
2018-11-26T12:32:03.580Z,38.85
2018-11-26T12:33:11.909Z,43.25
2018-11-26T12:34:19.122Z,42.03
2018-11-26T12:35:27.545Z,43.50
2018-11-26T12:36:38.407Z,40.30
2018-11-26T12:37:45.278Z,41.28
2018-11-26T12:38:49.222Z,44.18
2018-11-26T12:39:54.878Z,42.08
2018-11-26T12:43:08.593Z,43.30
2018-11-26T12:44:18.727Z,37.38
2018-11-26T12:45:38.266Z,38.58
2018-11-26T12:46:46.541Z,39.90
2018-11-26T12:48:02.011Z,41.33
2018-11-26T12:49:12.729Z,41.65
2018-11-26T12:50:26.222Z,39.45
2018-11-26T12:51:34.647Z,44.55
2018-11-26T12:52:47.402Z,41.00
2018-11-26T12:53:52.411Z,42.13
2018-11-26T12:54:57.399Z,41.95
2018-11-26T12:56:02.233Z,44.85
2018-11-26T12:57:07.808Z,38.70
2018-11-26T12:58:12.055Z,41.40
2018-11-26T12:59:20.193Z,44.13
2018-11-26T13:00:31.731Z,41.02
2018-11-26T13:02:07.554Z,42.50
2018-11-26T13:03:15.297Z,43.20
2018-11-26T13:04:21.201Z,47.62
2018-11-26T13:05:27.793Z,41.48
2018-11-26T13:06:32.773Z,46.92
2018-11-26T13:07:40.328Z,44.67
2018-11-26T13:08:47.003Z,47.60
2018-11-26T13:09:52.260Z,42.25
2018-11-26T13:11:09.508Z,46.92
2018-11-26T13:12:17.043Z,43.80
2018-11-26T13:13:23.454Z,47.58
2018-11-26T13:14:36.417Z,53.58
2018-11-26T13:15:41.167Z,50.95
2018-11-26T13:16:46.611Z,48.78
2018-11-26T13:17:53.315Z,46.05
2018-11-26T13:18:59.277Z,48.73
2018-11-26T13:20:23.223Z,46.48
2018-11-26T13:21:28.139Z,44.63
2018-11-26T13:22:32.443Z,43.05
2018-11-26T13:23:36.730Z,40.95
2018-11-26T13:24:41.058Z,43.50
2018-11-26T13:25:45.755Z,44.42
2018-11-26T13:26:52.446Z,41.77
2018-11-26T13:28:02.241Z,39.00
2018-11-26T13:29:07.815Z,42.75
2018-11-26T13:30:16.685Z,45.33
2018-11-26T13:31:20.703Z,45.50
2018-11-26T13:32:24.732Z,44.18
2018-11-26T13:33:30.390Z,46.77
2018-11-26T13:34:39.529Z,44.65
2018-11-26T13:35:43.829Z,46.15
2018-11-26T13:36:49.079Z,42.58
2018-11-26T13:37:53.387Z,45.05
2018-11-26T13:38:58.356Z,41.90
2018-11-26T13:40:02.705Z,41.48
2018-11-26T13:41:06.763Z,44.50
2018-11-26T13:42:12.175Z,43.70
2018-11-26T13:43:18.061Z,42.43
2018-11-26T13:44:26.788Z,45.38
2018-11-26T13:45:34.944Z,41.80
2018-11-26T13:46:39.725Z,45.95
2018-11-26T13:47:45.462Z,45.10
2018-11-26T13:48:50.272Z,43.48
2018-11-26T13:49:55.496Z,44.45
2018-11-26T13:51:00.307Z,46.20
2018-11-26T13:52:04.886Z,47.62
2018-11-26T13:53:08.911Z,59.38
2018-11-26T13:54:12.937Z,47.05
2018-11-26T13:55:16.962Z,54.30
2018-11-26T13:56:22.791Z,44.75
2018-11-26T13:57:28.094Z,45.35
2018-11-26T13:58:33.765Z,43.80
2018-11-26T13:59:37.791Z,44.33
2018-11-26T14:00:43.074Z,48.92
2018-11-26T14:01:49.121Z,45.23
2018-11-26T14:03:11.191Z,43.95
2018-11-26T14:04:16.265Z,44.20
2018-11-26T14:05:21.283Z,48.73
2018-11-26T14:06:26.288Z,40.28
2018-11-26T14:07:36.366Z,47.10
2018-11-26T14:08:42.661Z,47.25
2018-11-26T14:09:49.364Z,46.40
2018-11-26T14:10:54.536Z,49.35
2018-11-26T14:11:59.359Z,43.48
2018-11-26T14:13:07.677Z,48.52
2018-11-26T14:14:12.121Z,42.55
2018-11-26T14:15:20.017Z,47.33
2018-11-26T14:16:26.258Z,46.08
2018-11-26T14:17:40.195Z,45.70
2018-11-26T14:18:44.812Z,45.63
2018-11-26T14:19:49.725Z,44.05
2018-11-26T14:20:56.277Z,37.88
2018-11-26T14:22:00.195Z,41.77
2018-11-26T14:23:06.187Z,44.13
2018-11-26T14:24:12.879Z,43.42
2018-11-26T14:25:18.692Z,41.35